Lebanon, NH

11:02 AM EST on March 01, 2015 (GMT -0500)
Hartness State | Change Station
CLOSE
Current Station
Airport
Location: Springfield,
Elevation: 574 ft
Nearby Weather Stations

Elev 574 ft 43.34 °N, 72.52 °W | Updated 8 minutes ago

Overcast
Overcast
12 °F
Feels Like 12 °F
N
0
Wind Variable Wind from North

Today
High -- | Low -- °F
--% Chance of Precip.
Yesterday
High -- | Low -- °F
Precip. -- in
6:26 AM 5:37 PM
Waxing Gibbous, 86% visible
Pressure 30.58 in
Visibility 6.0 miles
Clouds Overcast 3800 ft
Dew Point 2 °F
Humidity 64%
Rainfall 0.00 in
Snow Depth Not available.
UV 1 out of 12
Pollen .40 out of 12
Air Quality Not available.
Flu Activity Not available.
METAR KVSF 011554Z AUTO 00000KT 6SM HZ OVC038 M11/M17 A3054 RMK AO2 SLP356 T11111167 TSNO $

More Conditions Fewer Conditions

Pressure 30.58 in
Visibility 6.0 miles
Clouds Overcast 3800 ft
Dew Point 2 °F
Humidity 64%
Rainfall 0.00 in
Snow Depth Not available.
UV 1 out of 12
Pollen .40 out of 12
Air Quality Not available.
Flu Activity Not available.
METAR KVSF 011554Z AUTO 00000KT 6SM HZ OVC038 M11/M17 A3054 RMK AO2 SLP356 T11111167 TSNO $

More Conditions Fewer Conditions

10-Day Weather Forecast

Almanac

Astronomy

Mar. 01, 2015 Rise Set
Actual Time
Civil Twilight
Nautical Twilight
Astronomical Twilight
Moon
Length of Visible Light
Length of Day
Tomorrow will be .
, % of the Moon is Illuminated

Today's Extremes

State Highs State Lows

Community

WunderPhotos

Upload Photos

1,801,440 photos uploaded!

WunderBlogs® & News

Nearby

Air Quality

  Air Quality AQ Index Pollutant
Not available.

Snow Depth

Station Depth Elevation

Earthquake Activity

City Distance Mag. Time & Date
Minimum magnitude displayed is 2.5.

Coastal Water Temperatures

Place Temperature

Nearby Weather Stations